createdAt,value
2019-03-01T00:02:10.015Z,3.35
2019-03-01T00:04:37.923Z,3.30
2019-03-01T00:07:05.836Z,3.30
2019-03-01T00:09:33.789Z,3.20
2019-03-01T00:12:01.754Z,3.35
2019-03-01T00:14:29.744Z,3.37
2019-03-01T00:16:57.730Z,3.83
2019-03-01T00:19:25.766Z,4.45
2019-03-01T00:21:53.698Z,3.52
2019-03-01T00:24:21.676Z,4.28
2019-03-01T00:26:49.588Z,3.60
2019-03-01T00:29:17.522Z,4.08
2019-03-01T00:31:46.007Z,3.40
2019-03-01T00:34:13.906Z,4.30
2019-03-01T00:36:41.842Z,3.55
2019-03-01T00:39:09.720Z,3.40
2019-03-01T00:41:37.591Z,3.67
2019-03-01T00:44:05.600Z,4.60
2019-03-01T00:46:33.610Z,3.70
2019-03-01T00:49:01.496Z,4.28
2019-03-01T00:51:29.433Z,3.37
2019-03-01T00:53:57.481Z,3.80
2019-03-01T00:56:25.371Z,3.90
2019-03-01T00:58:53.672Z,3.50
2019-03-01T01:01:21.644Z,3.77
2019-03-01T01:03:49.689Z,4.40
2019-03-01T01:06:17.656Z,3.67
2019-03-01T01:08:45.516Z,3.40
2019-03-01T01:11:13.352Z,3.58
2019-03-01T01:13:41.313Z,3.30
2019-03-01T01:16:09.179Z,3.85
2019-03-01T01:18:37.272Z,3.47
2019-03-01T01:21:05.199Z,3.60
2019-03-01T01:23:33.122Z,3.12
2019-03-01T01:26:01.030Z,3.08
2019-03-01T01:28:29.074Z,3.20
2019-03-01T01:30:57.066Z,3.85
2019-03-01T01:33:25.081Z,2.92
2019-03-01T01:35:52.984Z,3.90
2019-03-01T01:38:20.938Z,3.15
2019-03-01T01:40:48.897Z,3.00
2019-03-01T01:43:16.838Z,3.70
2019-03-01T01:45:44.811Z,3.20
2019-03-01T01:48:12.811Z,3.42
2019-03-01T01:50:40.857Z,3.12
2019-03-01T01:53:08.867Z,3.17
2019-03-01T01:55:36.831Z,3.42
2019-03-01T01:58:04.789Z,3.42
2019-03-01T02:00:32.631Z,3.47
2019-03-01T02:03:00.572Z,3.30
2019-03-01T02:05:28.442Z,3.17
2019-03-01T02:07:56.380Z,3.33
2019-03-01T02:10:29.723Z,3.75
2019-03-01T02:12:57.585Z,3.35
2019-03-01T02:15:25.478Z,3.50
2019-03-01T02:17:53.378Z,3.35
2019-03-01T02:20:21.348Z,3.90
2019-03-01T02:22:49.196Z,3.30
2019-03-01T02:25:17.066Z,3.50
2019-03-01T02:27:44.943Z,3.72
2019-03-01T02:30:12.935Z,3.50
2019-03-01T02:32:40.813Z,3.83
2019-03-01T02:35:08.701Z,4.05
2019-03-01T02:37:36.539Z,3.35
2019-03-01T02:40:04.422Z,3.83
2019-03-01T02:42:32.351Z,3.60
2019-03-01T02:45:00.362Z,3.80
2019-03-01T02:47:28.226Z,3.37
2019-03-01T02:49:56.081Z,3.50
2019-03-01T02:52:24.028Z,3.12
2019-03-01T02:54:52.236Z,2.80
2019-03-01T02:57:20.171Z,3.30
2019-03-01T02:59:48.045Z,3.87
2019-03-01T03:02:15.992Z,3.87
2019-03-01T03:04:43.851Z,3.72
2019-03-01T03:07:28.682Z,3.60
2019-03-01T03:09:55.982Z,3.90
2019-03-01T03:12:23.849Z,4.30
2019-03-01T03:14:51.703Z,4.00
2019-03-01T03:17:19.665Z,3.45
2019-03-01T03:19:47.532Z,3.47
2019-03-01T03:22:15.455Z,3.80
2019-03-01T03:24:43.413Z,3.17
2019-03-01T03:27:11.284Z,3.60
2019-03-01T03:29:39.295Z,4.25
2019-03-01T03:32:07.269Z,3.20
2019-03-01T03:34:35.328Z,3.20
2019-03-01T03:37:03.294Z,3.65
2019-03-01T03:39:31.257Z,3.50
2019-03-01T03:41:59.102Z,3.22
2019-03-01T03:44:26.984Z,3.65
2019-03-01T03:46:54.833Z,3.50
2019-03-01T03:49:22.746Z,3.90
2019-03-01T03:51:50.696Z,3.75
2019-03-01T03:54:18.646Z,3.87
2019-03-01T03:56:46.654Z,3.67
2019-03-01T03:59:14.524Z,4.00
2019-03-01T04:01:42.405Z,4.28
2019-03-01T04:04:10.382Z,4.12
2019-03-01T04:06:38.332Z,4.03
2019-03-01T04:09:06.197Z,3.90
2019-03-01T04:11:36.399Z,3.55
2019-03-01T04:14:04.443Z,3.85
2019-03-01T04:16:32.366Z,3.65
2019-03-01T04:19:00.205Z,3.80
2019-03-01T04:21:28.152Z,3.45
2019-03-01T04:23:56.102Z,3.77
2019-03-01T04:26:24.099Z,4.12
2019-03-01T04:28:51.970Z,3.85
2019-03-01T04:31:19.939Z,4.25
2019-03-01T04:33:47.804Z,4.28
2019-03-01T04:36:15.641Z,4.70
2019-03-01T04:38:43.517Z,4.20
2019-03-01T04:41:11.371Z,4.20
2019-03-01T04:43:39.261Z,3.80
2019-03-01T04:46:07.077Z,4.42
2019-03-01T04:48:34.945Z,5.28
2019-03-01T04:51:02.802Z,6.67
2019-03-01T04:53:30.758Z,4.70
2019-03-01T04:55:58.724Z,5.35
2019-03-01T04:58:26.650Z,4.67
2019-03-01T05:00:54.580Z,5.70
2019-03-01T05:03:22.548Z,5.20
2019-03-01T05:05:50.475Z,4.92
2019-03-01T05:08:18.429Z,4.65
2019-03-01T05:10:46.270Z,3.92
2019-03-01T05:13:14.142Z,4.70
2019-03-01T05:15:42.051Z,4.53
2019-03-01T05:18:10.062Z,4.62
2019-03-01T05:20:37.894Z,5.10
2019-03-01T05:23:05.848Z,5.05
2019-03-01T05:25:33.786Z,4.72
2019-03-01T05:28:01.640Z,4.50
2019-03-01T05:30:29.520Z,5.15
2019-03-01T05:32:57.391Z,5.25
2019-03-01T05:35:25.409Z,5.75
2019-03-01T05:37:53.363Z,5.95
2019-03-01T05:40:21.316Z,4.83
2019-03-01T05:42:49.149Z,4.60
2019-03-01T05:45:17.030Z,5.30
2019-03-01T05:47:44.857Z,5.22
2019-03-01T05:50:12.703Z,6.00
2019-03-01T05:52:40.586Z,5.92
2019-03-01T05:55:08.455Z,6.45
2019-03-01T05:57:36.505Z,5.90
2019-03-01T06:00:06.002Z,5.10
2019-03-01T06:02:33.890Z,5.83
2019-03-01T06:05:01.860Z,6.22
2019-03-01T06:07:29.897Z,6.42
2019-03-01T06:09:58.324Z,6.12
2019-03-01T06:12:26.326Z,5.20
2019-03-01T06:14:54.175Z,4.70
2019-03-01T06:17:22.048Z,4.20
2019-03-01T06:19:49.970Z,4.58
2019-03-01T06:22:17.827Z,4.50
2019-03-01T06:24:45.707Z,3.60
2019-03-01T06:27:13.663Z,2.40
2019-03-01T06:29:41.613Z,3.42
2019-03-01T06:32:09.551Z,3.62
2019-03-01T06:34:37.414Z,3.70
2019-03-01T06:37:05.292Z,3.47
2019-03-01T06:39:48.263Z,4.70
2019-03-01T06:42:16.133Z,3.90
2019-03-01T06:44:44.006Z,3.98
2019-03-01T06:47:11.845Z,9.85
2019-03-01T06:49:56.119Z,10.93
2019-03-01T06:52:23.973Z,9.93
2019-03-01T06:54:51.908Z,10.88
2019-03-01T06:57:19.826Z,12.82
2019-03-01T06:59:47.745Z,18.37
2019-03-01T07:02:20.388Z,18.62
2019-03-01T07:04:48.232Z,10.08
2019-03-01T07:07:16.184Z,18.07
2019-03-01T07:09:44.116Z,21.20
2019-03-01T07:12:12.000Z,8.80
2019-03-01T07:14:39.853Z,5.45
2019-03-01T07:17:07.818Z,14.58
2019-03-01T07:19:35.744Z,7.55
2019-03-01T07:22:03.654Z,7.92
2019-03-01T07:24:31.619Z,17.85
2019-03-01T07:26:59.483Z,19.07
2019-03-01T07:29:27.419Z,24.07
2019-03-01T07:31:55.357Z,21.77
2019-03-01T07:34:23.225Z,42.88
2019-03-01T07:36:51.125Z,25.23
2019-03-01T07:39:19.103Z,23.00
2019-03-01T07:41:47.040Z,22.37
2019-03-01T07:44:14.915Z,25.30
2019-03-01T07:46:52.324Z,100.05
2019-03-01T07:49:12.535Z,8.00
2019-03-01T07:51:40.382Z,7.15
2019-03-01T07:54:08.374Z,10.03
2019-03-01T07:56:36.958Z,6.45
2019-03-01T07:59:05.823Z,7.28
2019-03-01T08:01:33.724Z,10.48
2019-03-01T08:04:01.677Z,9.35
2019-03-01T08:06:29.641Z,8.00
2019-03-01T08:08:57.624Z,5.85
2019-03-01T08:11:28.490Z,4.50
2019-03-01T08:13:55.042Z,2.30
2019-03-01T08:16:25.102Z,2.90
2019-03-01T08:18:52.471Z,2.20
2019-03-01T08:21:20.344Z,1.90
2019-03-01T08:23:50.431Z,2.30
2019-03-01T08:26:17.867Z,1.92
2019-03-01T08:28:45.752Z,1.40
2019-03-01T08:31:13.590Z,1.32
2019-03-01T08:33:43.360Z,1.42
2019-03-01T08:36:11.111Z,1.10
2019-03-01T08:38:39.061Z,1.00
2019-03-01T08:41:06.983Z,1.00
2019-03-01T08:43:35.785Z,1.30
2019-03-01T08:46:05.484Z,1.25
2019-03-01T08:48:34.588Z,1.30
2019-03-01T08:51:04.738Z,1.80
2019-03-01T08:53:32.754Z,1.00
2019-03-01T08:56:00.715Z,1.00
2019-03-01T08:58:28.575Z,1.10
2019-03-01T09:00:59.535Z,1.00
2019-03-01T09:03:26.015Z,1.02
2019-03-01T09:05:53.866Z,1.72
2019-03-01T09:08:21.752Z,3.20
2019-03-01T09:10:49.659Z,1.40
2019-03-01T09:13:17.603Z,1.12
2019-03-01T09:15:46.145Z,1.20
2019-03-01T09:18:15.471Z,1.35
2019-03-01T09:20:43.505Z,1.60
2019-03-01T09:23:22.768Z,1.67
2019-03-01T09:25:41.448Z,6.90
2019-03-01T09:28:10.810Z,4.55
2019-03-01T09:30:40.291Z,9.48
2019-03-01T09:33:08.367Z,5.33
2019-03-01T09:35:43.984Z,5.55
2019-03-01T09:38:12.013Z,6.15
2019-03-01T09:40:39.992Z,6.28
2019-03-01T09:43:07.893Z,7.55
2019-03-01T09:45:36.677Z,7.15
2019-03-01T09:48:05.187Z,7.00
2019-03-01T09:50:34.587Z,6.87
2019-03-01T09:53:02.897Z,6.47
2019-03-01T09:55:30.925Z,6.80
2019-03-01T09:57:58.911Z,7.10
2019-03-01T10:00:26.853Z,8.43
2019-03-01T10:02:54.792Z,7.65
2019-03-01T10:05:22.781Z,7.12
2019-03-01T10:07:50.698Z,8.33
2019-03-01T10:10:18.665Z,8.43
2019-03-01T10:12:46.607Z,8.03
2019-03-01T10:15:14.557Z,8.03
2019-03-01T10:17:42.407Z,8.23
2019-03-01T10:20:10.295Z,8.93
2019-03-01T10:22:38.167Z,10.10
2019-03-01T10:25:06.117Z,8.95
2019-03-01T10:27:34.111Z,8.40
2019-03-01T10:30:01.970Z,9.25
2019-03-01T10:32:29.841Z,8.70
2019-03-01T10:34:57.803Z,9.98
2019-03-01T10:37:25.779Z,11.50
2019-03-01T10:39:55.593Z,8.80
2019-03-01T10:42:23.255Z,9.23
2019-03-01T10:44:51.124Z,8.93
2019-03-01T10:47:19.006Z,9.00
2019-03-01T10:49:46.864Z,10.38
2019-03-01T10:52:14.778Z,11.30
2019-03-01T10:54:42.742Z,11.90
2019-03-01T10:57:10.792Z,12.25
2019-03-01T10:59:38.860Z,13.28
2019-03-01T11:02:06.783Z,13.18
2019-03-01T11:04:34.746Z,13.98
2019-03-01T11:07:02.693Z,13.68
2019-03-01T11:09:30.709Z,13.38
2019-03-01T11:11:58.723Z,13.72
2019-03-01T11:14:26.564Z,14.33
2019-03-01T11:16:55.401Z,20.82
2019-03-01T11:19:23.409Z,21.77
2019-03-01T11:21:51.429Z,17.00
2019-03-01T11:24:19.502Z,16.50
2019-03-01T11:26:47.620Z,14.33
2019-03-01T11:29:15.767Z,11.83
2019-03-01T11:31:43.774Z,11.30
2019-03-01T11:34:11.637Z,9.75
2019-03-01T11:36:39.634Z,12.43
2019-03-01T11:39:07.552Z,11.28
2019-03-01T11:41:35.397Z,8.70
2019-03-01T11:44:03.675Z,10.13
2019-03-01T11:46:31.534Z,19.75
2019-03-01T11:49:00.755Z,15.83
2019-03-01T11:51:28.640Z,10.15
2019-03-01T11:53:56.619Z,12.03
2019-03-01T11:56:24.487Z,19.42
2019-03-01T11:58:52.329Z,15.90
2019-03-01T12:01:20.362Z,13.13
2019-03-01T12:03:48.216Z,5.30
2019-03-01T12:06:16.206Z,6.05
2019-03-01T12:08:44.195Z,5.03
2019-03-01T12:11:12.109Z,5.22
2019-03-01T12:13:40.080Z,6.87
2019-03-01T12:16:07.983Z,7.45
2019-03-01T12:18:36.596Z,6.72
2019-03-01T12:21:04.569Z,11.83
2019-03-01T12:23:32.443Z,16.73
2019-03-01T12:26:00.439Z,16.85
2019-03-01T12:28:28.370Z,19.17
2019-03-01T12:30:56.325Z,19.70
2019-03-01T12:33:24.330Z,20.97
2019-03-01T12:35:52.207Z,21.90
2019-03-01T12:38:20.269Z,27.37
2019-03-01T12:40:48.272Z,23.80
2019-03-01T12:43:16.317Z,30.50
2019-03-01T12:45:44.346Z,31.70
2019-03-01T12:48:12.321Z,28.02
2019-03-01T12:50:40.580Z,28.87
2019-03-01T12:53:08.640Z,29.30
2019-03-01T12:55:36.626Z,29.98
2019-03-01T12:58:04.516Z,34.38
2019-03-01T13:00:32.586Z,38.63
2019-03-01T13:03:08.706Z,39.48
2019-03-01T13:05:34.682Z,39.40
2019-03-01T13:08:02.654Z,41.20
2019-03-01T13:10:30.601Z,40.50
2019-03-01T13:13:01.584Z,39.15
2019-03-01T13:15:28.235Z,41.48
2019-03-01T13:17:56.169Z,38.15
2019-03-01T13:20:24.146Z,38.23
2019-03-01T13:22:52.127Z,37.67
2019-03-01T13:25:20.018Z,36.80
2019-03-01T13:27:48.853Z,35.28
2019-03-01T13:30:17.558Z,34.88
2019-03-01T13:32:45.463Z,34.10
2019-03-01T13:35:13.454Z,32.17
2019-03-01T13:37:41.325Z,30.20
2019-03-01T13:40:09.305Z,31.52
2019-03-01T13:42:37.366Z,28.98
2019-03-01T13:45:05.398Z,28.10
2019-03-01T13:47:33.479Z,27.77
2019-03-01T13:50:05.615Z,29.02
2019-03-01T13:52:31.446Z,27.07
2019-03-01T13:54:59.405Z,26.75
2019-03-01T13:57:28.031Z,26.73
2019-03-01T13:59:56.025Z,25.43
2019-03-01T14:02:24.236Z,24.47
2019-03-01T14:04:52.132Z,25.20
2019-03-01T14:07:20.101Z,23.27
2019-03-01T14:09:48.005Z,22.67
2019-03-01T14:12:15.870Z,24.05
2019-03-01T14:14:43.796Z,23.35
2019-03-01T14:17:12.511Z,21.85
2019-03-01T14:19:42.256Z,23.05
2019-03-01T14:22:13.121Z,22.40
2019-03-01T14:24:39.928Z,21.85
2019-03-01T14:27:07.860Z,21.12
2019-03-01T14:29:35.749Z,22.13
2019-03-01T14:32:03.630Z,21.12
2019-03-01T14:34:31.606Z,20.57
2019-03-01T14:36:59.557Z,20.95
2019-03-01T14:39:27.433Z,19.60
2019-03-01T14:41:55.361Z,19.10
2019-03-01T14:44:23.311Z,19.77
2019-03-01T14:46:52.885Z,18.98
2019-03-01T14:49:21.805Z,18.02
2019-03-01T14:51:50.431Z,17.40
2019-03-01T14:54:18.965Z,17.67
2019-03-01T14:56:46.806Z,21.75
2019-03-01T14:59:14.729Z,22.27
2019-03-01T15:01:42.604Z,22.00
2019-03-01T15:04:10.494Z,19.65
2019-03-01T15:06:38.379Z,21.57
2019-03-01T15:09:06.354Z,20.60
2019-03-01T15:11:34.332Z,30.45
2019-03-01T15:14:02.338Z,19.95
2019-03-01T15:16:30.238Z,24.25
2019-03-01T15:18:58.203Z,26.65
2019-03-01T15:21:29.307Z,22.15
2019-03-01T15:24:00.362Z,17.40
2019-03-01T15:26:27.939Z,15.93
2019-03-01T15:28:56.106Z,16.57
2019-03-01T15:31:24.107Z,15.35
2019-03-01T15:33:52.012Z,16.12
2019-03-01T15:36:19.949Z,15.08
2019-03-01T15:38:47.818Z,15.78
2019-03-01T15:41:15.709Z,16.32
2019-03-01T15:43:43.702Z,16.73
2019-03-01T15:46:14.313Z,15.68
2019-03-01T15:48:41.392Z,16.62
2019-03-01T15:51:09.277Z,17.12
2019-03-01T15:53:37.146Z,17.65
2019-03-01T15:56:05.916Z,16.42
2019-03-01T15:58:34.730Z,17.10
2019-03-01T16:01:05.499Z,17.67
2019-03-01T16:03:32.295Z,17.77
2019-03-01T16:06:00.324Z,16.27
2019-03-01T16:08:28.299Z,17.70
2019-03-01T16:10:56.204Z,16.25
2019-03-01T16:13:24.189Z,17.12
2019-03-01T16:15:52.170Z,17.48
2019-03-01T16:18:20.142Z,17.52
2019-03-01T16:20:48.115Z,16.67
2019-03-01T16:23:16.057Z,17.17
2019-03-01T16:25:43.928Z,17.52
2019-03-01T16:28:11.822Z,17.98
2019-03-01T16:30:39.697Z,16.85
2019-03-01T16:33:07.577Z,17.35
2019-03-01T16:35:35.481Z,16.50
2019-03-01T16:38:03.738Z,18.02
2019-03-01T16:40:31.596Z,19.00
2019-03-01T16:42:59.435Z,17.87
2019-03-01T16:45:27.390Z,18.15
2019-03-01T16:47:55.348Z,17.25
2019-03-01T16:50:23.274Z,17.52
2019-03-01T16:52:51.237Z,17.00
2019-03-01T16:55:19.106Z,17.70
2019-03-01T16:57:48.702Z,16.67
2019-03-01T17:00:18.135Z,16.75
2019-03-01T17:02:46.177Z,16.62
2019-03-01T17:05:14.143Z,19.27
2019-03-01T17:07:42.062Z,18.90
2019-03-01T17:10:09.941Z,17.52
2019-03-01T17:12:37.903Z,18.12
2019-03-01T17:15:05.908Z,17.23
2019-03-01T17:17:36.859Z,16.45
2019-03-01T17:20:03.781Z,17.12
2019-03-01T17:22:31.769Z,15.80
2019-03-01T17:24:59.715Z,59.55
2019-03-01T17:27:27.663Z,57.93
2019-03-01T17:29:55.559Z,54.60
2019-03-01T17:32:23.492Z,39.10
2019-03-01T17:34:52.110Z,29.40
2019-03-01T17:37:20.256Z,23.40
2019-03-01T17:39:48.141Z,32.00
2019-03-01T17:42:17.473Z,24.67
2019-03-01T17:44:45.779Z,21.07
2019-03-01T17:47:13.682Z,21.95
2019-03-01T17:49:41.549Z,19.32
2019-03-01T17:52:09.623Z,17.62
2019-03-01T17:54:37.559Z,19.25
2019-03-01T17:57:05.435Z,17.55
2019-03-01T17:59:33.347Z,17.27
2019-03-01T18:02:01.240Z,15.65
2019-03-01T18:04:29.245Z,17.32
2019-03-01T18:06:57.242Z,16.75
2019-03-01T18:09:25.110Z,19.30
2019-03-01T18:11:52.997Z,18.75
2019-03-01T18:14:21.006Z,16.87
2019-03-01T18:16:49.081Z,15.43
2019-03-01T18:19:18.055Z,15.43
2019-03-01T18:21:46.329Z,14.63
2019-03-01T18:24:15.692Z,13.62
2019-03-01T18:26:43.845Z,12.40
2019-03-01T18:29:11.815Z,14.45
2019-03-01T18:31:39.803Z,15.13
2019-03-01T18:34:07.748Z,14.63
2019-03-01T18:36:35.741Z,13.50
2019-03-01T18:39:06.915Z,14.00
2019-03-01T18:41:33.993Z,14.60
2019-03-01T18:44:01.907Z,13.95
2019-03-01T18:46:29.891Z,13.88
2019-03-01T18:48:57.902Z,13.55
2019-03-01T18:51:25.895Z,14.07
2019-03-01T18:53:53.769Z,14.07
2019-03-01T18:56:25.063Z,13.10
2019-03-01T18:58:51.338Z,11.88
2019-03-01T19:01:19.393Z,11.83
2019-03-01T19:03:47.297Z,12.43
2019-03-01T19:06:16.318Z,10.78
2019-03-01T19:08:44.855Z,10.35
2019-03-01T19:11:12.810Z,11.00
2019-03-01T19:13:40.845Z,9.90
2019-03-01T19:16:08.737Z,9.83
2019-03-01T19:18:36.702Z,10.08
2019-03-01T19:21:04.676Z,9.33
2019-03-01T19:23:33.367Z,10.30
2019-03-01T19:26:01.974Z,10.48
2019-03-01T19:28:30.120Z,10.00
2019-03-01T19:30:58.028Z,9.40
2019-03-01T19:33:25.932Z,9.65
2019-03-01T19:35:54.159Z,8.90
2019-03-01T19:38:25.154Z,8.28
2019-03-01T19:40:51.804Z,8.30
2019-03-01T19:43:19.733Z,8.15
2019-03-01T19:45:47.742Z,9.10
2019-03-01T19:48:15.736Z,12.00
2019-03-01T19:50:43.698Z,14.63
2019-03-01T19:53:11.703Z,18.90
2019-03-01T19:55:39.600Z,21.02
2019-03-01T19:58:08.787Z,20.88
2019-03-01T20:00:39.159Z,12.45
2019-03-01T20:03:10.001Z,12.53
2019-03-01T20:05:36.408Z,11.85
2019-03-01T20:08:04.325Z,10.82
2019-03-01T20:10:32.228Z,11.70
2019-03-01T20:13:00.123Z,11.22
2019-03-01T20:15:27.977Z,12.00
2019-03-01T20:17:55.874Z,10.60
2019-03-01T20:20:24.737Z,11.73
2019-03-01T20:22:54.338Z,11.85
2019-03-01T20:25:22.457Z,9.93
2019-03-01T20:27:50.331Z,10.85
2019-03-01T20:30:18.289Z,12.33
2019-03-01T20:32:47.449Z,10.60
2019-03-01T20:35:16.178Z,11.88
2019-03-01T20:37:44.163Z,13.13
2019-03-01T20:40:12.175Z,12.03
2019-03-01T20:42:40.051Z,11.00
2019-03-01T20:45:09.168Z,13.45
2019-03-01T20:47:37.318Z,13.15
2019-03-01T20:50:05.362Z,12.78
2019-03-01T20:52:34.857Z,13.05
2019-03-01T20:55:02.922Z,13.83
2019-03-01T20:57:30.869Z,14.58
2019-03-01T20:59:58.780Z,13.08
2019-03-01T21:02:26.760Z,13.50
2019-03-01T21:04:54.757Z,14.53
2019-03-01T21:07:22.704Z,14.35
2019-03-01T21:09:50.613Z,14.58
2019-03-01T21:12:18.906Z,15.38
2019-03-01T21:14:46.914Z,15.30
2019-03-01T21:17:16.802Z,13.75
2019-03-01T21:19:44.644Z,13.28
2019-03-01T21:22:12.632Z,14.43
2019-03-01T21:24:40.587Z,15.13
2019-03-01T21:27:08.864Z,14.47
2019-03-01T21:29:36.765Z,14.18
2019-03-01T21:32:04.768Z,15.40
2019-03-01T21:34:34.842Z,15.53
2019-03-01T21:37:03.778Z,14.53
2019-03-01T21:39:32.086Z,13.70
2019-03-01T21:42:00.056Z,15.23
2019-03-01T21:44:28.026Z,14.63
2019-03-01T21:46:55.970Z,14.90
2019-03-01T21:49:23.996Z,15.13
2019-03-01T21:51:55.199Z,13.88
2019-03-01T21:54:40.963Z,14.13
2019-03-01T21:57:08.856Z,14.30
2019-03-01T21:59:36.846Z,15.13
2019-03-01T22:02:04.836Z,15.88
2019-03-01T22:04:34.350Z,15.25
2019-03-01T22:07:02.889Z,14.40
2019-03-01T22:09:31.025Z,15.58
2019-03-01T22:11:58.930Z,15.15
2019-03-01T22:14:27.177Z,14.43
2019-03-01T22:16:55.162Z,15.75
2019-03-01T22:19:23.073Z,14.38
2019-03-01T22:21:51.051Z,13.93
2019-03-01T22:24:19.705Z,13.65
2019-03-01T22:26:49.592Z,15.25
2019-03-01T22:29:17.688Z,13.35
2019-03-01T22:31:45.685Z,14.40
2019-03-01T22:34:13.691Z,14.10
2019-03-01T22:36:41.725Z,14.00
2019-03-01T22:39:09.651Z,13.83
2019-03-01T22:41:39.317Z,13.98
2019-03-01T22:44:07.252Z,16.12
2019-03-01T22:46:35.205Z,14.70
2019-03-01T22:49:03.206Z,15.95
2019-03-01T22:51:31.158Z,17.20
2019-03-01T22:53:59.190Z,18.02
2019-03-01T22:56:27.066Z,17.48
2019-03-01T22:58:54.984Z,15.43
2019-03-01T23:01:25.817Z,15.80
2019-03-01T23:03:54.891Z,16.25
2019-03-01T23:06:24.299Z,15.90
2019-03-01T23:08:52.981Z,16.50
2019-03-01T23:11:21.281Z,15.00
2019-03-01T23:13:52.810Z,15.68
2019-03-01T23:16:20.532Z,14.98
2019-03-01T23:18:56.452Z,15.60
2019-03-01T23:21:18.114Z,15.08
2019-03-01T23:23:46.024Z,14.53
2019-03-01T23:26:13.884Z,15.78
2019-03-01T23:28:43.729Z,15.58
2019-03-01T23:31:11.624Z,16.00
2019-03-01T23:33:39.949Z,17.37
2019-03-01T23:36:07.950Z,16.90
2019-03-01T23:38:35.915Z,16.17
2019-03-01T23:41:03.899Z,14.98
2019-03-01T23:43:31.845Z,16.30
2019-03-01T23:46:00.275Z,15.60
2019-03-01T23:48:28.329Z,15.28
2019-03-01T23:50:56.229Z,17.15
2019-03-01T23:53:24.158Z,15.85
2019-03-01T23:55:54.736Z,15.78
2019-03-01T23:58:21.690Z,16.12
